Time;durP1;ratioP1;P1;durP2;ratioP2;P2;SDS_P1;SDS_P2;PMS_P1;PMS_P2;Temp;Humidity;BMP_temperature;BMP_pressure;BME280_temperature;BME280_humidity;BME280_pressure;Samples;Min_cycle;Max_cycle;Signal;HPM_P1;HPM_P2
2023/09/03 00:00:07;;;;;;;;;;;;;;;15.94;47.63;101394.66;4838729;28;98507;-74
2023/09/03 00:02:33;;;;;;;;;;;;;;;15.91;47.78;101405.28;4845628;28;98006;-70
2023/09/03 00:05:00;;;;;;;;;;;;;;;15.89;47.97;101402.03;4845552;28;98439;-70
2023/09/03 00:07:27;;;;;;;;;;;;;;;15.88;47.66;101405.84;4834927;28;98329;-74
2023/09/03 00:09:54;;;;;;;;;;;;;;;15.85;47.84;101407.22;4850689;28;99321;-73
2023/09/03 00:12:20;;;;;;;;;;;;;;;15.84;47.95;101411.03;4860305;28;98479;-73
2023/09/03 00:14:46;;;;;;;;;;;;;;;15.83;47.95;101408.56;4847934;28;99425;-70
2023/09/03 00:17:14;;;;;;;;;;;;;;;15.81;47.86;101402.63;4858462;28;98384;-74
2023/09/03 00:19:41;;;;;;;;;;;;;;;15.78;47.80;101405.91;4862469;28;98587;-70
2023/09/03 00:22:08;;;;;;;;;;;;;;;15.78;47.81;101404.00;4886897;28;98983;-70
2023/09/03 00:24:34;;;;;;;;;;;;;;;15.77;47.72;101405.09;4884243;28;98027;-70
2023/09/03 00:27:01;;;;;;;;;;;;;;;15.77;47.79;101401.56;4881496;28;98699;-73
2023/09/03 00:29:29;;;;;;;;;;;;;;;15.77;47.94;101396.94;4872343;28;100582;-70
2023/09/03 00:31:56;;;;;;;;;;;;;;;15.77;47.88;101396.13;4866584;28;98058;-74
2023/09/03 00:34:22;;;;;;;;;;;;;;;15.73;47.95;101398.59;4887048;28;98108;-70
2023/09/03 00:36:49;;;;;;;;;;;;;;;15.71;47.78;101396.13;4884249;28;98118;-73
2023/09/03 00:39:16;;;;;;;;;;;;;;;15.70;47.98;101402.66;4852893;28;98667;-70
2023/09/03 00:41:44;;;;;;;;;;;;;;;15.69;47.83;101400.25;4885162;28;99604;-74
2023/09/03 00:44:10;;;;;;;;;;;;;;;15.70;47.98;101401.84;4881588;28;98165;-74
2023/09/03 00:46:37;;;;;;;;;;;;;;;15.73;47.79;101414.09;4885086;28;98022;-74
2023/09/03 00:49:03;;;;;;;;;;;;;;;15.75;47.95;101401.00;4883080;28;99596;-71
2023/09/03 00:51:29;;;;;;;;;;;;;;;15.75;47.68;101401.00;4865597;28;99020;-71
2023/09/03 00:53:57;;;;;;;;;;;;;;;15.76;47.74;101389.88;4845941;28;98772;-70
2023/09/03 00:56:23;;;;;;;;;;;;;;;15.77;47.70;101385.25;4864720;28;98073;-74
2023/09/03 00:58:50;;;;;;;;;;;;;;;15.74;47.89;101378.47;4882474;28;98704;-70
2023/09/03 01:01:18;;;;;;;;;;;;;;;15.74;47.92;101375.75;4869909;28;98295;-70
2023/09/03 01:03:45;;;;;;;;;;;;;;;15.74;47.94;101380.38;4873427;28;98207;-70
2023/09/03 01:06:12;;;;;;;;;;;;;;;15.72;48.03;101386.09;4884376;28;98312;-74
2023/09/03 01:08:38;;;;;;;;;;;;;;;15.74;47.76;101388.53;4853489;28;98459;-74
2023/09/03 01:11:34;;;;;;;;;;;;;;;15.74;47.96;101381.19;4886195;28;98036;-74
2023/09/03 01:14:08;;;;;;;;;;;;;;;15.77;47.78;101383.34;4876572;28;98257;-71
2023/09/03 01:16:37;;;;;;;;;;;;;;;15.79;47.75;101380.34;4902147;28;98196;-75
2023/09/03 01:19:09;;;;;;;;;;;;;;;15.80;47.75;101377.34;4885757;28;98450;-71
2023/09/03 01:22:04;;;;;;;;;;;;;;;15.82;47.92;101385.22;4876978;28;98233;-71
2023/09/03 01:24:40;;;;;;;;;;;;;;;15.83;47.91;101378.69;4857998;28;99623;-70
2023/09/03 01:27:26;;;;;;;;;;;;;;;15.84;47.74;101385.75;4849220;28;99777;-74
2023/09/03 01:29:52;;;;;;;;;;;;;;;15.83;47.72;101395.00;4884231;28;98224;-74
2023/09/03 01:32:19;;;;;;;;;;;;;;;15.83;47.82;101395.00;4872119;28;100485;-70
2023/09/03 01:34:46;;;;;;;;;;;;;;;15.81;47.60;101400.72;4880061;28;98070;-74
2023/09/03 01:37:13;;;;;;;;;;;;;;;15.81;47.71;101391.75;4880511;28;99384;-74
2023/09/03 01:39:40;;;;;;;;;;;;;;;15.80;47.84;101403.69;4869520;28;98122;-70
2023/09/03 01:42:06;;;;;;;;;;;;;;;15.80;47.77;101409.13;4875171;28;98154;-70
2023/09/03 01:44:33;;;;;;;;;;;;;;;15.79;47.99;101410.22;4883690;28;98449;-74
2023/09/03 01:47:21;;;;;;;;;;;;;;;15.78;47.89;101409.41;4870621;28;98267;-74
2023/09/03 01:50:00;;;;;;;;;;;;;;;15.78;47.79;101408.63;4900109;28;99306;-70
2023/09/03 01:52:49;;;;;;;;;;;;;;;15.78;47.85;101400.47;4882057;28;100688;-71
2023/09/03 01:55:16;;;;;;;;;;;;;;;15.77;47.98;101398.84;4875162;28;98273;-71
2023/09/03 01:57:49;;;;;;;;;;;;;;;15.76;47.94;101395.31;4870169;28;98538;-74
2023/09/03 02:00:18;;;;;;;;;;;;;;;15.74;48.07;101388.53;4869775;28;98276;-71
2023/09/03 02:02:45;;;;;;;;;;;;;;;15.72;47.89;101388.81;4883827;28;98268;-74
2023/09/03 02:05:12;;;;;;;;;;;;;;;15.71;47.87;101390.69;4862637;28;97921;-74
2023/09/03 02:07:39;;;;;;;;;;;;;;;15.70;47.85;101386.34;4847310;28;99007;-74
2023/09/03 02:10:07;;;;;;;;;;;;;;;15.69;48.06;101376.59;4880222;28;98507;-74
2023/09/03 02:12:34;;;;;;;;;;;;;;;15.67;47.99;101381.47;4866549;28;99728;-71
2023/09/03 02:15:00;;;;;;;;;;;;;;;15.65;47.83;101385.59;4869821;28;98947;-71
2023/09/03 02:17:27;;;;;;;;;;;;;;;15.62;47.90;101380.66;4865202;28;98087;-71
2023/09/03 02:19:54;;;;;;;;;;;;;;;15.61;48.14;101388.00;4862326;28;99016;-74
2023/09/03 02:22:21;;;;;;;;;;;;;;;15.60;47.90;101389.09;4866719;28;98634;-74
2023/09/03 02:24:49;;;;;;;;;;;;;;;15.60;47.85;101382.84;4861467;28;98930;-74
2023/09/03 02:27:16;;;;;;;;;;;;;;;15.60;47.94;101380.13;4868064;28;98579;-74
2023/09/03 02:29:42;;;;;;;;;;;;;;;15.60;47.80;101383.66;4866143;28;98324;-71
2023/09/03 02:32:08;;;;;;;;;;;;;;;15.59;48.09;101383.94;4866928;28;98377;-71
2023/09/03 02:34:35;;;;;;;;;;;;;;;15.57;47.79;101386.13;4861711;28;97958;-71
2023/09/03 02:37:02;;;;;;;;;;;;;;;15.55;47.93;101391.03;4861795;28;98572;-71
2023/09/03 02:39:29;;;;;;;;;;;;;;;15.54;47.90;101392.13;4861554;28;98188;-71
2023/09/03 02:41:57;;;;;;;;;;;;;;;15.52;48.13;101394.28;4867010;28;98114;-75
2023/09/03 02:44:23;;;;;;;;;;;;;;;15.52;47.89;101403.25;4862199;28;98207;-72
2023/09/03 02:46:49;;;;;;;;;;;;;;;15.49;47.79;101397.59;4860898;28;98266;-71
2023/09/03 02:49:16;;;;;;;;;;;;;;;15.46;47.94;101399.75;4867714;28;100005;-74
2023/09/03 02:51:42;;;;;;;;;;;;;;;15.45;48.01;101389.16;4886167;28;99598;-74
2023/09/03 02:54:09;;;;;;;;;;;;;;;15.43;48.03;101388.63;4866035;28;98168;-74
2023/09/03 02:56:35;;;;;;;;;;;;;;;15.42;48.09;101387.81;4901942;28;98116;-74
2023/09/03 02:59:02;;;;;;;;;;;;;;;15.42;48.19;101376.13;4880809;28;98429;-74
2023/09/03 03:01:29;;;;;;;;;;;;;;;15.41;47.85;101371.81;4862159;28;101200;-71
2023/09/03 03:03:55;;;;;;;;;;;;;;;15.39;48.02;101377.50;4865817;28;98145;-74
2023/09/03 03:06:21;;;;;;;;;;;;;;;15.38;48.23;101384.03;4869414;28;98355;-74
2023/09/03 03:08:48;;;;;;;;;;;;;;;15.37;48.00;101378.88;4881403;28;98357;-74
2023/09/03 03:11:15;;;;;;;;;;;;;;;15.38;48.06;101384.03;4881117;28;98003;-72
2023/09/03 03:13:43;;;;;;;;;;;;;;;15.38;48.23;101377.78;4853868;28;98098;-71
2023/09/03 03:16:11;;;;;;;;;;;;;;;15.38;47.95;101386.75;4862356;28;98579;-71
2023/09/03 03:18:38;;;;;;;;;;;;;;;15.39;47.83;101385.63;4883765;28;98077;-73
2023/09/03 03:21:08;;;;;;;;;;;;;;;15.39;48.16;101395.69;4888891;28;98189;-74
2023/09/03 03:23:39;;;;;;;;;;;;;;;15.40;48.22;101398.13;4863782;28;98433;-71
2023/09/03 03:26:05;;;;;;;;;;;;;;;15.40;48.09;101411.72;4863840;28;100260;-72
2023/09/03 03:28:34;;;;;;;;;;;;;;;15.40;48.01;101397.31;4857816;28;98317;-74
2023/09/03 03:31:11;;;;;;;;;;;;;;;15.39;48.05;101388.34;4835694;28;99414;-74
2023/09/03 03:33:39;;;;;;;;;;;;;;;15.41;48.03;101379.94;4864265;28;99650;-74
2023/09/03 03:36:05;;;;;;;;;;;;;;;15.40;48.19;101384.53;4883995;28;102836;-74
2023/09/03 03:38:33;;;;;;;;;;;;;;;15.39;47.98;101391.06;4863946;28;100286;-74
2023/09/03 03:41:15;;;;;;;;;;;;;;;15.38;48.21;101391.38;4860425;28;98635;-74
2023/09/03 03:43:46;;;;;;;;;;;;;;;15.37;47.93;101387.84;4869344;28;99188;-71
2023/09/03 03:46:15;;;;;;;;;;;;;;;15.36;48.08;101390.81;4848235;28;99368;-75
2023/09/03 03:48:41;;;;;;;;;;;;;;;15.36;48.41;101379.94;4849084;28;98099;-72
2023/09/03 03:51:07;;;;;;;;;;;;;;;15.34;47.97;101377.50;4853465;28;100325;-75
2023/09/03 03:53:34;;;;;;;;;;;;;;;15.30;48.30;101372.91;4846723;28;101467;-74
2023/09/03 03:56:04;;;;;;;;;;;;;;;15.23;47.94;101382.16;4849813;28;98349;-74
2023/09/03 03:58:31;;;;;;;;;;;;;;;15.21;48.35;101387.06;4869249;28;102837;-72
2023/09/03 04:01:01;;;;;;;;;;;;;;;15.19;47.99;101393.84;4866726;28;98161;-71
2023/09/03 04:03:29;;;;;;;;;;;;;;;15.17;47.95;101387.91;4851131;28;98201;-74
2023/09/03 04:06:02;;;;;;;;;;;;;;;15.15;48.17;101393.59;4852992;28;98213;-75
2023/09/03 04:08:31;;;;;;;;;;;;;;;15.13;48.19;101387.63;4861992;28;98355;-72
2023/09/03 04:11:07;;;;;;;;;;;;;;;15.11;48.38;101387.09;4849392;28;98143;-71
2023/09/03 04:13:33;;;;;;;;;;;;;;;15.10;47.97;101380.03;4864986;28;98050;-74
2023/09/03 04:16:05;;;;;;;;;;;;;;;15.09;48.34;101383.84;4866359;28;98399;-71
2023/09/03 04:18:31;;;;;;;;;;;;;;;15.09;48.25;101383.84;4852666;28;98134;-73
2023/09/03 04:20:57;;;;;;;;;;;;;;;15.11;48.33;101381.66;4878687;28;98263;-70
2023/09/03 04:23:24;;;;;;;;;;;;;;;15.07;48.44;101386.00;4886036;28;98475;-71
2023/09/03 04:25:56;;;;;;;;;;;;;;;15.05;48.36;101388.19;4869300;28;102496;-71
2023/09/03 04:28:23;;;;;;;;;;;;;;;15.05;48.40;101395.50;4887306;28;98078;-74
2023/09/03 04:30:53;;;;;;;;;;;;;;;15.05;48.31;101390.91;4866318;28;98860;-71
2023/09/03 04:33:20;;;;;;;;;;;;;;;15.05;48.16;101399.06;4871844;28;99065;-74
2023/09/03 04:35:47;;;;;;;;;;;;;;;15.05;48.46;101406.38;4870079;28;97963;-71
2023/09/03 04:38:15;;;;;;;;;;;;;;;15.08;48.19;101413.97;4865718;28;98241;-74
2023/09/03 04:40:44;;;;;;;;;;;;;;;15.10;48.39;101418.06;4884396;28;98373;-71
2023/09/03 04:43:10;;;;;;;;;;;;;;;15.13;48.23;101417.50;4884556;28;99049;-71
2023/09/03 04:45:36;;;;;;;;;;;;;;;15.16;48.01;101427.78;4869077;28;98388;-71
2023/09/03 04:48:02;;;;;;;;;;;;;;;15.18;48.23;101428.34;4870551;28;99184;-73
2023/09/03 04:50:29;;;;;;;;;;;;;;;15.23;48.43;101427.53;4851675;28;101573;-73
2023/09/03 04:52:55;;;;;;;;;;;;;;;15.34;48.44;101444.63;4882805;28;98360;-70
2023/09/03 04:55:21;;;;;;;;;;;;;;;15.44;48.00;101441.84;4900514;28;98467;-71
2023/09/03 04:57:47;;;;;;;;;;;;;;;15.54;47.99;101449.19;4872182;28;100175;-73
2023/09/03 05:00:14;;;;;;;;;;;;;;;15.63;47.98;101451.03;4879556;28;98433;-74
2023/09/03 05:02:40;;;;;;;;;;;;;;;15.70;47.92;101457.03;4868418;28;98242;-70
2023/09/03 05:05:07;;;;;;;;;;;;;;;15.78;47.92;101452.91;4879990;28;97990;-74
2023/09/03 05:07:33;;;;;;;;;;;;;;;15.85;47.88;101452.63;4883915;28;99574;-73
2023/09/03 05:10:00;;;;;;;;;;;;;;;15.90;47.94;101449.88;4885758;28;98197;-74
2023/09/03 05:12:26;;;;;;;;;;;;;;;15.94;48.06;101440.88;4882233;28;98300;-71
2023/09/03 05:14:53;;;;;;;;;;;;;;;15.99;48.05;101442.75;4885713;28;98207;-73
2023/09/03 05:17:20;;;;;;;;;;;;;;;16.06;47.84;101450.59;4889071;28;98113;-71
2023/09/03 05:19:46;;;;;;;;;;;;;;;16.13;47.75;101462.00;4870057;28;97935;-71
2023/09/03 05:22:12;;;;;;;;;;;;;;;16.16;47.84;101459.53;4865209;28;99840;-74
2023/09/03 05:24:40;;;;;;;;;;;;;;;16.22;47.94;101459.50;4891785;28;97950;-74
2023/09/03 05:27:06;;;;;;;;;;;;;;;16.30;47.86;101459.72;4884889;28;98488;-71
2023/09/03 05:29:33;;;;;;;;;;;;;;;16.40;47.90;101465.09;4866082;28;98925;-74
2023/09/03 05:32:00;;;;;;;;;;;;;;;16.49;47.71;101464.50;4867214;28;98192;-74
2023/09/03 05:34:27;;;;;;;;;;;;;;;16.61;47.51;101476.66;4864148;28;98441;-74
2023/09/03 05:36:55;;;;;;;;;;;;;;;16.70;47.55;101471.41;4868242;28;98471;-74
2023/09/03 05:39:22;;;;;;;;;;;;;;;16.78;47.54;101481.75;4875789;28;98702;-73
2023/09/03 05:41:48;;;;;;;;;;;;;;;16.92;47.39;101481.88;4865160;28;99280;-71
2023/09/03 05:44:15;;;;;;;;;;;;;;;17.00;47.21;101475.00;4874558;28;98010;-71
2023/09/03 05:46:43;;;;;;;;;;;;;;;17.11;47.33;101482.00;4869003;28;99422;-71
2023/09/03 05:49:09;;;;;;;;;;;;;;;17.23;47.13;101490.59;4879863;28;98284;-71
2023/09/03 05:51:36;;;;;;;;;;;;;;;17.39;47.23;101500.25;4895877;28;98157;-73
2023/09/03 05:54:03;;;;;;;;;;;;;;;17.54;47.10;101491.09;4863667;28;98513;-71
2023/09/03 05:56:30;;;;;;;;;;;;;;;17.67;47.06;101495.84;4847729;28;99602;-71
2023/09/03 05:59:05;;;;;;;;;;;;;;;17.71;47.22;101498.00;4847820;28;98585;-71
2023/09/03 06:01:34;;;;;;;;;;;;;;;17.66;47.17;101509.78;4863654;28;98614;-71
2023/09/03 06:04:04;;;;;;;;;;;;;;;17.73;47.34;101504.78;4857804;28;98403;-73
2023/09/03 06:06:38;;;;;;;;;;;;;;;17.81;47.24;101501.47;4866924;28;98487;-73
2023/09/03 06:09:05;;;;;;;;;;;;;;;17.95;46.87;101501.53;4863242;28;99010;-73
2023/09/03 06:11:34;;;;;;;;;;;;;;;18.04;46.93;101499.81;4866294;28;98345;-73
2023/09/03 06:14:00;;;;;;;;;;;;;;;18.06;47.02;101494.06;4861785;28;98475;-73
2023/09/03 06:16:27;;;;;;;;;;;;;;;18.13;47.00;101498.03;4864133;28;99693;-73
2023/09/03 06:18:54;;;;;;;;;;;;;;;18.21;46.93;101502.03;4865244;28;98383;-70
2023/09/03 06:21:20;;;;;;;;;;;;;;;18.29;47.00;101503.31;4833608;28;98098;-71
2023/09/03 06:23:47;;;;;;;;;;;;;;;18.50;46.84;101507.34;4829000;28;98465;-73
2023/09/03 06:26:14;;;;;;;;;;;;;;;18.66;46.52;101513.38;4848244;28;104637;-73
2023/09/03 06:28:40;;;;;;;;;;;;;;;18.83;46.51;101524.63;4858892;28;100469;-74
2023/09/03 06:31:07;;;;;;;;;;;;;;;19.08;46.28;101534.34;4845753;28;100227;-70
2023/09/03 06:33:34;;;;;;;;;;;;;;;19.29;46.25;101539.44;4859841;28;98279;-74
2023/09/03 06:36:00;;;;;;;;;;;;;;;19.34;46.32;101553.03;4855612;28;98509;-70
2023/09/03 06:38:27;;;;;;;;;;;;;;;19.38;46.40;101562.25;4844494;28;99162;-73
2023/09/03 06:40:54;;;;;;;;;;;;;;;19.41;46.38;101567.09;4861574;28;98322;-70
2023/09/03 06:43:20;;;;;;;;;;;;;;;19.84;46.02;101558.69;4855839;28;98001;-70
2023/09/03 06:45:47;;;;;;;;;;;;;;;19.96;45.95;101569.94;4858371;28;98338;-73
2023/09/03 06:48:13;;;;;;;;;;;;;;;20.55;45.53;101579.16;4846147;28;97985;-73
2023/09/03 06:50:42;;;;;;;;;;;;;;;20.42;45.94;101579.13;4848033;28;98214;-73
2023/09/03 06:53:08;;;;;;;;;;;;;;;20.39;46.11;101586.03;4861287;28;98493;-73
2023/09/03 06:55:35;;;;;;;;;;;;;;;20.56;45.93;101579.97;4865027;28;98865;-69
2023/09/03 06:58:01;;;;;;;;;;;;;;;20.91;45.57;101593.97;4859425;28;104713;-69
2023/09/03 07:00:29;;;;;;;;;;;;;;;20.91;45.84;101596.72;4863300;28;100761;-73
2023/09/03 07:02:55;;;;;;;;;;;;;;;20.76;46.08;101597.88;4879516;28;98501;-69
2023/09/03 07:05:21;;;;;;;;;;;;;;;20.53;46.37;101589.59;4857642;28;98457;-74
2023/09/03 07:07:48;;;;;;;;;;;;;;;20.46;46.44;101577.41;4878283;28;98556;-70
2023/09/03 07:10:15;;;;;;;;;;;;;;;20.57;46.32;101563.22;4861925;28;98395;-73
2023/09/03 07:12:42;;;;;;;;;;;;;;;20.94;45.97;101563.19;4855011;28;98202;-73
2023/09/03 07:15:09;;;;;;;;;;;;;;;22.38;44.38;101572.00;4866585;28;98362;-70
2023/09/03 07:17:37;;;;;;;;;;;;;;;23.21;43.49;101571.84;4849285;28;98281;-73
2023/09/03 07:20:03;;;;;;;;;;;;;;;23.31;43.98;101574.28;4864767;28;98444;-69
2023/09/03 07:22:29;;;;;;;;;;;;;;;23.23;44.42;101578.66;4884509;28;98204;-69
2023/09/03 07:24:55;;;;;;;;;;;;;;;23.23;44.51;101575.09;4883211;28;98342;-74
2023/09/03 07:27:22;;;;;;;;;;;;;;;23.38;44.29;101568.25;4866282;28;98551;-74
2023/09/03 07:29:54;;;;;;;;;;;;;;;23.48;44.70;101571.47;4875114;28;98433;-74
2023/09/03 07:32:24;;;;;;;;;;;;;;;23.49;44.54;101575.03;4899416;28;98050;-74
2023/09/03 07:34:51;;;;;;;;;;;;;;;23.24;45.09;101583.03;4876992;28;98397;-69
2023/09/03 07:37:17;;;;;;;;;;;;;;;23.16;45.13;101572.84;4878817;28;98663;-74
2023/09/03 07:39:45;;;;;;;;;;;;;;;23.12;45.43;101576.56;4865234;28;98420;-74
2023/09/03 07:42:11;;;;;;;;;;;;;;;23.12;45.37;101571.88;4864978;28;98376;-74
2023/09/03 07:44:39;;;;;;;;;;;;;;;23.21;45.14;101580.91;4866421;28;98366;-69
2023/09/03 07:47:06;;;;;;;;;;;;;;;23.67;44.86;101582.13;4883231;28;98943;-69
2023/09/03 07:49:32;;;;;;;;;;;;;;;24.06;44.54;101587.63;4880531;28;99691;-69
2023/09/03 07:51:59;;;;;;;;;;;;;;;24.21;44.59;101587.06;4879840;28;98183;-69
2023/09/03 07:54:25;;;;;;;;;;;;;;;24.20;44.62;101599.22;4880110;28;98285;-69
2023/09/03 07:56:55;;;;;;;;;;;;;;;24.19;44.59;101598.41;4864860;28;99924;-74
2023/09/03 07:59:22;;;;;;;;;;;;;;;23.90;45.27;101607.47;4898813;28;99135;-74
2023/09/03 08:01:48;;;;;;;;;;;;;;;23.53;45.43;101614.50;4880316;28;98152;-68
2023/09/03 08:04:15;;;;;;;;;;;;;;;23.17;46.13;101626.69;4866913;28;98576;-74
2023/09/03 08:06:42;;;;;;;;;;;;;;;22.79;46.61;101632.81;4869362;28;99256;-74
2023/09/03 08:09:09;;;;;;;;;;;;;;;22.52;46.49;101628.41;4880334;28;99520;-68
2023/09/03 08:11:36;;;;;;;;;;;;;;;22.35;46.63;101624.81;4898744;28;98149;-74
2023/09/03 08:14:03;;;;;;;;;;;;;;;22.44;46.43;101625.63;4867328;28;98362;-73
2023/09/03 08:16:29;;;;;;;;;;;;;;;22.59;46.33;101627.94;4902649;28;126910;-69
2023/09/03 08:18:55;;;;;;;;;;;;;;;22.83;45.82;101621.97;4890804;28;98300;-74
2023/09/03 08:21:22;;;;;;;;;;;;;;;22.97;45.52;101619.91;4890535;28;98552;-74
2023/09/03 08:23:51;;;;;;;;;;;;;;;23.36;45.25;101631.06;4880820;28;117909;-74
2023/09/03 08:26:17;;;;;;;;;;;;;;;23.59;45.28;101640.72;4887502;28;98098;-68
2023/09/03 08:28:43;;;;;;;;;;;;;;;23.77;45.26;101647.00;4864443;28;99162;-69
2023/09/03 08:31:11;;;;;;;;;;;;;;;23.67;45.19;101659.19;4880960;28;97998;-69
2023/09/03 08:33:40;;;;;;;;;;;;;;;23.66;45.35;101646.56;4882290;28;99335;-74
2023/09/03 08:36:06;;;;;;;;;;;;;;;23.89;45.40;101640.81;4886829;28;98163;-68
2023/09/03 08:38:33;;;;;;;;;;;;;;;24.74;44.13;101644.28;4864652;28;98346;-69
2023/09/03 08:41:00;;;;;;;;;;;;;;;25.32;43.53;101644.50;4881804;28;98486;-74
2023/09/03 08:43:27;;;;;;;;;;;;;;;27.56;41.51;101638.13;4861186;28;98375;-69
2023/09/03 08:46:00;;;;;;;;;;;;;;;29.00;40.33;101643.97;4883507;28;98346;-74
2023/09/03 08:48:26;;;;;;;;;;;;;;;29.80;40.29;101647.91;4884125;28;98540;-68
2023/09/03 08:50:53;;;;;;;;;;;;;;;30.84;39.63;101651.50;4866610;28;98062;-69
2023/09/03 08:53:20;;;;;;;;;;;;;;;31.71;39.15;101655.66;4882242;28;99383;-68
2023/09/03 08:55:46;;;;;;;;;;;;;;;31.62;39.86;101657.19;4867437;28;98340;-75
2023/09/03 08:58:15;;;;;;;;;;;;;;;31.10;40.80;101665.34;4868868;28;101720;-69
2023/09/03 09:00:41;;;;;;;;;;;;;;;30.76;41.19;101665.31;4869174;28;98435;-67
2023/09/03 09:03:11;;;;;;;;;;;;;;;30.48;41.68;101668.47;4884216;28;98581;-74
2023/09/03 09:05:39;;;;;;;;;;;;;;;29.42;42.87;101662.66;4863951;28;98928;-67
2023/09/03 09:08:06;;;;;;;;;;;;;;;28.63;43.88;101662.97;4868007;28;98568;-67
2023/09/03 09:10:33;;;;;;;;;;;;;;;27.83;44.54;101666.97;4868215;28;98435;-74
2023/09/03 09:13:07;;;;;;;;;;;;;;;27.33;44.95;101663.59;4882711;28;98875;-74
2023/09/03 09:15:36;;;;;;;;;;;;;;;26.95;45.33;101655.75;4860848;28;98200;-67
2023/09/03 09:18:09;;;;;;;;;;;;;;;26.80;45.13;101653.72;4872939;28;98411;-67
2023/09/03 09:20:38;;;;;;;;;;;;;;;26.87;44.73;101651.19;4863221;28;98601;-74
2023/09/03 09:23:04;;;;;;;;;;;;;;;27.03;44.25;101652.03;4866950;28;98760;-75
2023/09/03 09:25:30;;;;;;;;;;;;;;;27.29;43.67;101648.06;4870666;28;98561;-67
2023/09/03 09:27:57;;;;;;;;;;;;;;;28.16;42.60;101651.94;4881879;28;98085;-73
2023/09/03 09:30:26;;;;;;;;;;;;;;;28.50;42.34;101650.41;4868381;28;98876;-73
2023/09/03 09:33:03;;;;;;;;;;;;;;;28.51;43.02;101657.53;4864225;28;97994;-66
2023/09/03 09:35:30;;;;;;;;;;;;;;;28.87;42.67;101656.34;4885869;28;98174;-74
2023/09/03 09:38:07;;;;;;;;;;;;;;;28.79;42.83;101647.06;4861540;28;98090;-74
2023/09/03 09:40:35;;;;;;;;;;;;;;;30.80;40.49;101643.09;4883435;28;100170;-67
2023/09/03 09:43:03;;;;;;;;;;;;;;;31.81;39.76;101639.44;4864859;28;98291;-67
2023/09/03 09:45:30;;;;;;;;;;;;;;;32.48;39.65;101641.97;4847538;28;98006;-74
2023/09/03 09:48:07;;;;;;;;;;;;;;;31.47;41.16;101651.47;4858978;28;106482;-66
2023/09/03 09:50:34;;;;;;;;;;;;;;;33.04;39.61;101651.03;4863012;28;99553;-66
2023/09/03 09:53:00;;;;;;;;;;;;;;;34.60;38.13;101655.97;4878930;28;98559;-74
2023/09/03 09:55:32;;;;;;;;;;;;;;;35.05;37.96;101653.41;4864411;28;98086;-66
2023/09/03 09:57:58;;;;;;;;;;;;;;;35.12;38.39;101647.78;4879256;28;98263;-74
2023/09/03 10:00:36;;;;;;;;;;;;;;;35.24;38.45;101651.31;4881129;28;97979;-75
2023/09/03 10:03:04;;;;;;;;;;;;;;;34.84;39.14;101640.28;4863357;28;98785;-68
2023/09/03 10:05:31;;;;;;;;;;;;;;;33.37;40.87;101644.38;4864029;28;100909;-67
2023/09/03 10:07:57;;;;;;;;;;;;;;;32.19;41.91;101641.78;4861565;28;98303;-74
2023/09/03 10:10:24;;;;;;;;;;;;;;;32.62;41.22;101639.28;4849615;28;98882;-74
2023/09/03 10:12:50;;;;;;;;;;;;;;;32.68;41.58;101636.91;4880390;28;100119;-67
2023/09/03 10:15:16;;;;;;;;;;;;;;;33.45;40.01;101632.84;4899629;28;98204;-66
2023/09/03 10:17:44;;;;;;;;;;;;;;;31.46;42.84;101627.59;4877668;28;99422;-75
2023/09/03 10:20:15;;;;;;;;;;;;;;;31.06;42.88;101622.75;4875035;28;99163;-75
2023/09/03 10:22:41;;;;;;;;;;;;;;;33.02;39.95;101631.09;4856091;28;98520;-67
2023/09/03 10:25:17;;;;;;;;;;;;;;;33.77;39.36;101639.66;4857628;28;98270;-72
2023/09/03 10:27:50;;;;;;;;;;;;;;;34.55;39.09;101634.00;4855371;28;98122;-74
2023/09/03 10:30:18;;;;;;;;;;;;;;;35.42;38.10;101626.78;4855836;28;98392;-67
2023/09/03 10:32:44;;;;;;;;;;;;;;;35.78;38.03;101630.13;4843704;28;98234;-67
2023/09/03 10:35:11;;;;;;;;;;;;;;;35.47;38.68;101631.16;4855572;28;98391;-67
2023/09/03 10:37:39;;;;;;;;;;;;;;;35.50;39.04;101628.34;4859804;28;97980;-68
2023/09/03 10:40:24;;;;;;;;;;;;;;;35.14;39.27;101636.19;4838736;28;98432;-75
2023/09/03 10:42:51;;;;;;;;;;;;;;;35.13;39.64;101643.75;4856517;28;98220;-67
2023/09/03 10:45:18;;;;;;;;;;;;;;;35.94;38.66;101645.63;4842431;28;99902;-74
2023/09/03 10:48:00;;;;;;;;;;;;;;;35.63;39.30;101648.28;4863318;28;98242;-75
2023/09/03 10:50:50;;;;;;;;;;;;;;;36.85;37.61;101650.69;4862637;28;98470;-67
2023/09/03 10:53:37;;;;;;;;;;;;;;;35.96;39.09;101649.63;4877769;28;98445;-67
2023/09/03 10:56:13;;;;;;;;;;;;;;;36.40;38.50;101639.59;4846844;28;101997;-67
2023/09/03 10:59:01;;;;;;;;;;;;;;;35.68;39.51;101635.81;4859338;28;99073;-74
2023/09/03 11:01:32;;;;;;;;;;;;;;;34.74;40.32;101629.13;4836584;28;98227;-67
2023/09/03 11:04:00;;;;;;;;;;;;;;;34.51;40.71;101624.03;4858428;28;99725;-74
2023/09/03 11:06:37;;;;;;;;;;;;;;;33.33;41.75;101630.38;4867342;28;98350;-67
2023/09/03 11:09:12;;;;;;;;;;;;;;;32.09;43.29;101630.53;4864044;28;97986;-66
2023/09/03 11:11:39;;;;;;;;;;;;;;;31.40;43.59;101625.53;4880688;28;98280;-73
2023/09/03 11:14:06;;;;;;;;;;;;;;;30.92;43.88;101628.13;4832831;28;98768;-66
2023/09/03 11:16:37;;;;;;;;;;;;;;;31.77;42.27;101622.69;4847079;28;99493;-68
2023/09/03 11:19:04;;;;;;;;;;;;;;;32.64;41.19;101633.31;4862188;28;98190;-67
2023/09/03 11:21:31;;;;;;;;;;;;;;;33.04;40.84;101625.91;4854870;28;98833;-74
2023/09/03 11:24:00;;;;;;;;;;;;;;;33.33;40.40;101640.75;4875159;28;98408;-66
2023/09/03 11:26:26;;;;;;;;;;;;;;;32.55;41.74;101644.03;4842175;28;98118;-74
2023/09/03 11:28:53;;;;;;;;;;;;;;;31.59;42.55;101650.38;4853470;28;98545;-73
2023/09/03 11:31:19;;;;;;;;;;;;;;;30.93;43.25;101647.25;4853022;28;98570;-66
2023/09/03 11:33:46;;;;;;;;;;;;;;;32.21;41.59;101644.16;4840528;28;98368;-74
2023/09/03 11:36:12;;;;;;;;;;;;;;;32.96;40.72;101642.63;4844444;28;98211;-67
2023/09/03 11:38:39;;;;;;;;;;;;;;;33.12;40.73;101647.06;4876552;28;98095;-73
2023/09/03 11:41:06;;;;;;;;;;;;;;;33.07;40.35;101656.63;4869102;28;98243;-66
2023/09/03 11:43:35;;;;;;;;;;;;;;;33.06;41.03;101655.03;4841854;28;99870;-66
2023/09/03 11:46:01;;;;;;;;;;;;;;;33.96;39.79;101650.44;4874979;28;98158;-66
2023/09/03 11:48:29;;;;;;;;;;;;;;;33.41;40.78;101661.94;4861187;28;98350;-73
2023/09/03 11:50:55;;;;;;;;;;;;;;;31.94;42.27;101651.91;4854493;28;98239;-66
2023/09/03 11:53:23;;;;;;;;;;;;;;;32.76;40.95;101649.69;4837760;28;98252;-66
2023/09/03 11:55:52;;;;;;;;;;;;;;;32.43;41.45;101653.53;4845198;28;98427;-73
2023/09/03 11:58:19;;;;;;;;;;;;;;;31.78;42.22;101660.50;4846749;28;99386;-67
2023/09/03 12:00:45;;;;;;;;;;;;;;;31.51;42.03;101666.22;4839751;28;98627;-66
2023/09/03 12:03:12;;;;;;;;;;;;;;;32.04;41.73;101661.56;4883210;28;98689;-73
2023/09/03 12:05:38;;;;;;;;;;;;;;;32.26;41.44;101661.31;4882909;28;99738;-73
2023/09/03 12:08:05;;;;;;;;;;;;;;;32.25;41.51;101653.34;4881219;28;98437;-73
2023/09/03 12:10:31;;;;;;;;;;;;;;;31.98;41.68;101661.91;4882594;28;98455;-66
2023/09/03 12:13:02;;;;;;;;;;;;;;;32.01;41.64;101661.16;4880140;28;98294;-73
2023/09/03 12:15:29;;;;;;;;;;;;;;;32.08;41.54;101659.63;4875984;28;98365;-66
2023/09/03 12:18:08;;;;;;;;;;;;;;;31.58;41.86;101664.72;4880033;28;98280;-73
2023/09/03 12:20:34;;;;;;;;;;;;;;;31.46;41.81;101666.56;4844558;28;98318;-66
2023/09/03 12:23:06;;;;;;;;;;;;;;;31.33;41.98;101673.59;4861261;28;98592;-74
2023/09/03 12:25:33;;;;;;;;;;;;;;;31.38;41.61;101672.47;4879803;28;98017;-66
2023/09/03 12:28:00;;;;;;;;;;;;;;;30.94;42.36;101673.91;4846499;28;98120;-66
2023/09/03 12:30:27;;;;;;;;;;;;;;;30.83;42.17;101670.19;4827221;28;99200;-73
2023/09/03 12:32:54;;;;;;;;;;;;;;;30.56;42.39;101666.59;4856879;28;98259;-72
2023/09/03 12:35:20;;;;;;;;;;;;;;;30.59;42.40;101670.59;4847791;28;98832;-66
2023/09/03 12:37:47;;;;;;;;;;;;;;;30.47;42.29;101666.06;4851626;28;98625;-66
2023/09/03 12:40:14;;;;;;;;;;;;;;;30.65;41.90;101675.44;4863678;28;99628;-73